sensor_id;sensor_type;location;lat;lon;timestamp;pressure;altitude;pressure_sealevel;temperature;humidity
52927;BME280;40783;49.710;8.842;2023-04-15T00:01:31;98165.72;;;4.18;100.00
52927;BME280;40783;49.710;8.842;2023-04-15T00:04:01;98168.94;;;4.12;100.00
52927;BME280;40783;49.710;8.842;2023-04-15T00:06:26;98165.19;;;4.05;100.00
52927;BME280;40783;49.710;8.842;2023-04-15T00:08:55;98159.19;;;4.03;100.00
52927;BME280;40783;49.710;8.842;2023-04-15T00:11:22;98157.38;;;4.03;100.00
52927;BME280;40783;49.710;8.842;2023-04-15T00:13:48;98162.25;;;4.08;100.00
52927;BME280;40783;49.710;8.842;2023-04-15T00:16:16;98160.88;;;4.04;100.00
52927;BME280;40783;49.710;8.842;2023-04-15T00:18:42;98163.09;;;3.98;100.00
52927;BME280;40783;49.710;8.842;2023-04-15T00:21:07;98165.06;;;3.96;100.00
52927;BME280;40783;49.710;8.842;2023-04-15T00:23:33;98151.81;;;3.96;100.00
52927;BME280;40783;49.710;8.842;2023-04-15T00:26:00;98152.78;;;3.95;100.00
52927;BME280;40783;49.710;8.842;2023-04-15T00:28:26;98144.72;;;3.87;100.00
52927;BME280;40783;49.710;8.842;2023-04-15T00:30:52;98153.22;;;3.81;100.00
52927;BME280;40783;49.710;8.842;2023-04-15T00:33:17;98150.28;;;3.84;100.00
52927;BME280;40783;49.710;8.842;2023-04-15T00:35:42;98143.75;;;3.88;100.00
52927;BME280;40783;49.710;8.842;2023-04-15T00:38:08;98138.88;;;3.93;100.00
52927;BME280;40783;49.710;8.842;2023-04-15T00:40:35;98146.41;;;3.88;100.00
52927;BME280;40783;49.710;8.842;2023-04-15T00:43:01;98138.75;;;3.85;100.00
52927;BME280;40783;49.710;8.842;2023-04-15T00:45:29;98145.00;;;3.84;100.00
52927;BME280;40783;49.710;8.842;2023-04-15T00:47:55;98140.28;;;3.68;100.00
52927;BME280;40783;49.710;8.842;2023-04-15T00:50:22;98136.94;;;3.66;100.00
52927;BME280;40783;49.710;8.842;2023-04-15T00:52:48;98140.00;;;3.61;100.00
52927;BME280;40783;49.710;8.842;2023-04-15T00:55:14;98139.47;;;3.67;100.00
52927;BME280;40783;49.710;8.842;2023-04-15T00:57:39;98148.63;;;3.73;100.00
52927;BME280;40783;49.710;8.842;2023-04-15T01:00:06;98146.41;;;3.68;100.00
52927;BME280;40783;49.710;8.842;2023-04-15T01:02:37;98149.75;;;3.70;100.00
52927;BME280;40783;49.710;8.842;2023-04-15T01:05:03;98139.47;;;3.67;100.00
52927;BME280;40783;49.710;8.842;2023-04-15T01:07:29;98141.41;;;3.65;100.00
52927;BME280;40783;49.710;8.842;2023-04-15T01:09:57;98140.72;;;3.63;100.00
52927;BME280;40783;49.710;8.842;2023-04-15T01:12:26;98141.00;;;3.60;100.00
52927;BME280;40783;49.710;8.842;2023-04-15T01:14:53;98135.81;;;3.59;100.00
52927;BME280;40783;49.710;8.842;2023-04-15T01:17:18;98138.63;;;3.57;100.00
52927;BME280;40783;49.710;8.842;2023-04-15T01:19:46;98139.03;;;3.62;100.00
52927;BME280;40783;49.710;8.842;2023-04-15T01:22:14;98136.69;;;3.59;100.00
52927;BME280;40783;49.710;8.842;2023-04-15T01:24:40;98133.88;;;3.51;100.00
52927;BME280;40783;49.710;8.842;2023-04-15T01:27:07;98137.78;;;3.47;100.00
52927;BME280;40783;49.710;8.842;2023-04-15T01:29:37;98136.38;;;3.42;100.00
52927;BME280;40783;49.710;8.842;2023-04-15T01:32:05;98141.38;;;3.46;100.00
52927;BME280;40783;49.710;8.842;2023-04-15T01:34:30;98133.72;;;3.42;100.00
52927;BME280;40783;49.710;8.842;2023-04-15T01:36:56;98140.25;;;3.48;100.00
52927;BME280;40783;49.710;8.842;2023-04-15T01:39:21;98140.69;;;3.44;100.00
52927;BME280;40783;49.710;8.842;2023-04-15T01:41:47;98135.53;;;3.32;100.00
52927;BME280;40783;49.710;8.842;2023-04-15T01:44:15;98150.25;;;3.25;100.00
52927;BME280;40783;49.710;8.842;2023-04-15T01:46:43;98147.75;;;3.23;100.00
52927;BME280;40783;49.710;8.842;2023-04-15T01:49:08;98139.69;;;3.25;100.00
52927;BME280;40783;49.710;8.842;2023-04-15T01:51:35;98143.72;;;3.29;100.00
52927;BME280;40783;49.710;8.842;2023-04-15T01:54:01;98141.78;;;3.31;100.00
52927;BME280;40783;49.710;8.842;2023-04-15T01:56:28;98143.56;;;3.21;100.00
52927;BME280;40783;49.710;8.842;2023-04-15T01:58:54;98138.00;;;3.24;100.00
52927;BME280;40783;49.710;8.842;2023-04-15T02:01:24;98137.19;;;3.33;100.00
52927;BME280;40783;49.710;8.842;2023-04-15T02:03:49;98137.31;;;3.22;100.00
52927;BME280;40783;49.710;8.842;2023-04-15T02:06:17;98137.75;;;3.27;100.00
52927;BME280;40783;49.710;8.842;2023-04-15T02:08:42;98146.91;;;3.23;100.00
52927;BME280;40783;49.710;8.842;2023-04-15T02:11:08;98143.56;;;3.21;100.00
52927;BME280;40783;49.710;8.842;2023-04-15T02:13:33;98135.25;;;3.25;100.00
52927;BME280;40783;49.710;8.842;2023-04-15T02:15:58;98143.28;;;3.24;100.00
52927;BME280;40783;49.710;8.842;2023-04-15T02:18:26;98143.88;;;3.28;100.00
52927;BME280;40783;49.710;8.842;2023-04-15T02:20:51;98139.13;;;3.31;100.00
52927;BME280;40783;49.710;8.842;2023-04-15T02:23:20;98131.91;;;3.33;100.00
52927;BME280;40783;49.710;8.842;2023-04-15T02:25:48;98134.97;;;3.29;100.00
52927;BME280;40783;49.710;8.842;2023-04-15T02:28:13;98132.72;;;3.24;100.00
52927;BME280;40783;49.710;8.842;2023-04-15T02:30:38;98148.03;;;3.20;100.00
52927;BME280;40783;49.710;8.842;2023-04-15T02:33:07;98134.94;;;3.19;100.00
52927;BME280;40783;49.710;8.842;2023-04-15T02:35:33;98134.94;;;3.19;100.00
52927;BME280;40783;49.710;8.842;2023-04-15T02:37:58;98140.78;;;3.13;100.00
52927;BME280;40783;49.710;8.842;2023-04-15T02:40:25;98139.66;;;3.05;100.00
52927;BME280;40783;49.710;8.842;2023-04-15T02:42:51;98141.59;;;3.03;100.00
52927;BME280;40783;49.710;8.842;2023-04-15T02:45:16;98146.34;;;3.09;100.00
52927;BME280;40783;49.710;8.842;2023-04-15T02:47:43;98143.28;;;3.04;100.00
52927;BME280;40783;49.710;8.842;2023-04-15T02:50:11;98142.69;;;3.01;100.00
52927;BME280;40783;49.710;8.842;2023-04-15T02:52:43;98142.13;;;2.97;100.00
52927;BME280;40783;49.710;8.842;2023-04-15T02:55:11;98142.41;;;2.94;100.00
52927;BME280;40783;49.710;8.842;2023-04-15T02:57:37;98139.06;;;2.92;100.00
52927;BME280;40783;49.710;8.842;2023-04-15T03:00:03;98141.88;;;3.00;100.00
52927;BME280;40783;49.710;8.842;2023-04-15T03:02:33;98138.25;;;3.01;100.00
52927;BME280;40783;49.710;8.842;2023-04-15T03:05:01;98131.16;;;2.92;100.00
52927;BME280;40783;49.710;8.842;2023-04-15T03:07:30;98131.00;;;2.93;100.00
52927;BME280;40783;49.710;8.842;2023-04-15T03:09:57;98136.78;;;2.77;100.00
52927;BME280;40783;49.710;8.842;2023-04-15T03:12:22;98128.75;;;2.79;100.00
52927;BME280;40783;49.710;8.842;2023-04-15T03:14:53;98127.91;;;2.78;100.00
52927;BME280;40783;49.710;8.842;2023-04-15T03:17:19;98136.97;;;2.86;100.00
52927;BME280;40783;49.710;8.842;2023-04-15T03:19:46;98126.13;;;2.89;100.00
52927;BME280;40783;49.710;8.842;2023-04-15T03:22:12;98130.97;;;2.84;100.00
52927;BME280;40783;49.710;8.842;2023-04-15T03:24:37;98127.63;;;2.81;100.00
52927;BME280;40783;49.710;8.842;2023-04-15T03:27:05;98133.78;;;2.92;100.00
52927;BME280;40783;49.710;8.842;2023-04-15T03:29:33;98126.69;;;2.92;100.00
52927;BME280;40783;49.710;8.842;2023-04-15T03:31:58;98142.69;;;2.91;100.00
52927;BME280;40783;49.710;8.842;2023-04-15T03:34:26;98134.91;;;2.89;100.00
52927;BME280;40783;49.710;8.842;2023-04-15T03:36:51;98137.41;;;2.91;100.00
52927;BME280;40783;49.710;8.842;2023-04-15T03:39:17;98129.03;;;2.86;100.00
52927;BME280;40783;49.710;8.842;2023-04-15T03:41:47;98137.94;;;2.85;100.00
52927;BME280;40783;49.710;8.842;2023-04-15T03:44:12;98136.63;;;2.69;100.00
52927;BME280;40783;49.710;8.842;2023-04-15T03:46:37;98144.53;;;2.69;100.00
52927;BME280;40783;49.710;8.842;2023-04-15T03:49:05;98136.78;;;2.77;100.00
52927;BME280;40783;49.710;8.842;2023-04-15T03:51:30;98140.84;;;2.81;100.00
52927;BME280;40783;49.710;8.842;2023-04-15T03:53:58;98139.03;;;2.82;100.00
52927;BME280;40783;49.710;8.842;2023-04-15T03:56:26;98134.41;;;2.74;100.00
52927;BME280;40783;49.710;8.842;2023-04-15T03:58:51;98134.84;;;2.79;100.00
52927;BME280;40783;49.710;8.842;2023-04-15T04:01:17;98138.03;;;2.73;100.00
52927;BME280;40783;49.710;8.842;2023-04-15T04:03:43;98137.31;;;2.71;100.00
52927;BME280;40783;49.710;8.842;2023-04-15T04:06:10;98132.31;;;2.68;100.00
52927;BME280;40783;49.710;8.842;2023-04-15T04:08:36;98128.97;;;2.66;100.00
52927;BME280;40783;49.710;8.842;2023-04-15T04:11:05;98121.75;;;2.68;100.00
52927;BME280;40783;49.710;8.842;2023-04-15T04:13:30;98130.06;;;2.63;100.00
52927;BME280;40783;49.710;8.842;2023-04-15T04:15:56;98127.31;;;2.65;100.00
52927;BME280;40783;49.710;8.842;2023-04-15T04:18:21;98130.06;;;2.63;100.00
52927;BME280;40783;49.710;8.842;2023-04-15T04:20:46;98141.47;;;2.64;100.00
52927;BME280;40783;49.710;8.842;2023-04-15T04:23:12;98141.19;;;2.67;100.00
52927;BME280;40783;49.710;8.842;2023-04-15T04:25:37;98135.91;;;2.67;100.00
52927;BME280;40783;49.710;8.842;2023-04-15T04:28:03;98142.88;;;2.68;100.00
52927;BME280;40783;49.710;8.842;2023-04-15T04:30:33;98138.84;;;2.64;100.00
52927;BME280;40783;49.710;8.842;2023-04-15T04:33:01;98154.28;;;2.69;100.00
52927;BME280;40783;49.710;8.842;2023-04-15T04:35:27;98146.22;;;2.70;100.00
52927;BME280;40783;49.710;8.842;2023-04-15T04:37:52;98151.22;;;2.73;100.00
52927;BME280;40783;49.710;8.842;2023-04-15T04:40:18;98147.63;;;2.74;100.00
52927;BME280;40783;49.710;8.842;2023-04-15T04:42:43;98157.31;;;2.64;100.00
52927;BME280;40783;49.710;8.842;2023-04-15T04:45:09;98157.44;;;2.62;100.00
52927;BME280;40783;49.710;8.842;2023-04-15T04:47:34;98155.78;;;2.61;100.00
52927;BME280;40783;49.710;8.842;2023-04-15T04:50:04;98163.00;;;2.69;100.00
52927;BME280;40783;49.710;8.842;2023-04-15T04:52:30;98161.22;;;2.70;100.00
52927;BME280;40783;49.710;8.842;2023-04-15T04:54:56;98159.56;;;2.69;100.00
52927;BME280;40783;49.710;8.842;2023-04-15T04:57:21;98159.25;;;2.62;100.00
52927;BME280;40783;49.710;8.842;2023-04-15T04:59:46;98165.91;;;2.66;100.00
52927;BME280;40783;49.710;8.842;2023-04-15T05:02:14;98147.03;;;2.61;100.00
52927;BME280;40783;49.710;8.842;2023-04-15T05:04:41;98153.72;;;2.65;100.00
52927;BME280;40783;49.710;8.842;2023-04-15T05:07:09;98164.41;;;2.73;100.00
52927;BME280;40783;49.710;8.842;2023-04-15T05:09:34;98155.34;;;2.66;100.00
52927;BME280;40783;49.710;8.842;2023-04-15T05:12:01;98157.59;;;2.61;100.00
52927;BME280;40783;49.710;8.842;2023-04-15T05:14:29;98157.59;;;2.61;100.00
52927;BME280;40783;49.710;8.842;2023-04-15T05:16:54;98154.53;;;2.65;100.00
52927;BME280;40783;49.710;8.842;2023-04-15T05:19:22;98160.94;;;2.63;100.00
52927;BME280;40783;49.710;8.842;2023-04-15T05:21:47;98160.94;;;2.63;100.00
52927;BME280;40783;49.710;8.842;2023-04-15T05:24:13;98155.34;;;2.66;100.00
52927;BME280;40783;49.710;8.842;2023-04-15T05:26:40;98161.75;;;2.63;100.00
52927;BME280;40783;49.710;8.842;2023-04-15T05:29:08;98155.09;;;2.69;100.00
52927;BME280;40783;49.710;8.842;2023-04-15T05:31:36;98165.56;;;2.80;100.00
52927;BME280;40783;49.710;8.842;2023-04-15T05:34:01;98167.06;;;2.73;100.00
52927;BME280;40783;49.710;8.842;2023-04-15T05:36:27;98156.75;;;2.70;100.00
52927;BME280;40783;49.710;8.842;2023-04-15T05:38:52;98163.00;;;2.69;100.00
52927;BME280;40783;49.710;8.842;2023-04-15T05:41:20;98175.16;;;2.81;100.00
52927;BME280;40783;49.710;8.842;2023-04-15T05:43:46;98163.09;;;2.89;100.00
52927;BME280;40783;49.710;8.842;2023-04-15T05:46:14;98168.81;;;2.94;100.00
52927;BME280;40783;49.710;8.842;2023-04-15T05:48:39;98173.13;;;2.95;100.00
52927;BME280;40783;49.710;8.842;2023-04-15T05:51:07;98169.97;;;3.01;100.00
52927;BME280;40783;49.710;8.842;2023-04-15T05:53:32;98171.38;;;3.05;100.00
52927;BME280;40783;49.710;8.842;2023-04-15T05:56:00;98167.47;;;3.09;100.00
52927;BME280;40783;49.710;8.842;2023-04-15T05:58:25;98173.59;;;3.20;100.00
52927;BME280;40783;49.710;8.842;2023-04-15T06:00:53;98175.16;;;3.32;100.00
52927;BME280;40783;49.710;8.842;2023-04-15T06:03:21;98173.91;;;3.36;100.00
52927;BME280;40783;49.710;8.842;2023-04-15T06:05:47;98165.03;;;3.37;100.00
52927;BME280;40783;49.710;8.842;2023-04-15T06:08:12;98171.97;;;3.38;100.00
52927;BME280;40783;49.710;8.842;2023-04-15T06:10:40;98169.34;;;3.48;100.00
52927;BME280;40783;49.710;8.842;2023-04-15T06:13:06;98178.41;;;3.55;100.00
52927;BME280;40783;49.710;8.842;2023-04-15T06:15:33;98171.31;;;3.56;100.00
52927;BME280;40783;49.710;8.842;2023-04-15T06:18:01;98178.69;;;3.62;100.00
52927;BME280;40783;49.710;8.842;2023-04-15T06:20:27;98177.56;;;3.75;100.00
52927;BME280;40783;49.710;8.842;2023-04-15T06:22:52;98183.97;;;3.82;100.00
52927;BME280;40783;49.710;8.842;2023-04-15T06:25:20;98187.59;;;4.00;100.00
52927;BME280;40783;49.710;8.842;2023-04-15T06:27:45;98194.56;;;4.01;100.00
52927;BME280;40783;49.710;8.842;2023-04-15T06:30:13;98186.63;;;4.01;100.00
52927;BME280;40783;49.710;8.842;2023-04-15T06:32:38;98187.03;;;4.16;100.00
52927;BME280;40783;49.710;8.842;2023-04-15T06:35:06;98184.94;;;4.20;100.00
52927;BME280;40783;49.710;8.842;2023-04-15T06:37:32;98190.88;;;4.42;100.00
52927;BME280;40783;49.710;8.842;2023-04-15T06:39:57;98193.94;;;4.47;100.00
52927;BME280;40783;49.710;8.842;2023-04-15T06:42:25;98197.06;;;4.23;100.00
52927;BME280;40783;49.710;8.842;2023-04-15T06:44:53;98201.19;;;4.45;100.00
52927;BME280;40783;49.710;8.842;2023-04-15T06:47:18;98205.91;;;4.51;100.00
52927;BME280;40783;49.710;8.842;2023-04-15T06:49:48;98202.81;;;4.66;100.00
52927;BME280;40783;49.710;8.842;2023-04-15T06:52:16;98206.94;;;4.78;100.00
52927;BME280;40783;49.710;8.842;2023-04-15T06:54:42;98208.03;;;4.85;100.00
52927;BME280;40783;49.710;8.842;2023-04-15T06:57:07;98208.94;;;4.76;100.00
52927;BME280;40783;49.710;8.842;2023-04-15T06:59:33;98215.28;;;4.83;100.00
52927;BME280;40783;49.710;8.842;2023-04-15T07:01:59;98219.47;;;4.86;100.00
52927;BME280;40783;49.710;8.842;2023-04-15T07:04:27;98217.06;;;5.02;100.00
52927;BME280;40783;49.710;8.842;2023-04-15T07:06:53;98227.22;;;5.07;100.00
52927;BME280;40783;49.710;8.842;2023-04-15T07:09:24;98226.81;;;5.58;100.00
52927;BME280;40783;49.710;8.842;2023-04-15T07:11:50;98211.16;;;5.83;100.00
52927;BME280;40783;49.710;8.842;2023-04-15T07:14:19;98211.66;;;5.68;100.00
52927;BME280;40783;49.710;8.842;2023-04-15T07:16:46;98214.53;;;5.75;100.00
52927;BME280;40783;49.710;8.842;2023-04-15T07:19:12;98215.63;;;6.00;100.00
52927;BME280;40783;49.710;8.842;2023-04-15T07:21:37;98215.88;;;6.25;100.00
52927;BME280;40783;49.710;8.842;2023-04-15T07:24:05;98215.66;;;6.71;100.00
52927;BME280;40783;49.710;8.842;2023-04-15T07:26:30;98221.09;;;6.88;100.00
52927;BME280;40783;49.710;8.842;2023-04-15T07:28:58;98213.75;;;7.16;100.00
52927;BME280;40783;49.710;8.842;2023-04-15T07:31:25;98218.69;;;7.46;100.00
52927;BME280;40783;49.710;8.842;2023-04-15T07:33:51;98223.91;;;7.72;100.00
52927;BME280;40783;49.710;8.842;2023-04-15T07:36:19;98218.97;;;7.85;100.00
52927;BME280;40783;49.710;8.842;2023-04-15T07:38:45;98221.66;;;8.19;100.00
52927;BME280;40783;49.710;8.842;2023-04-15T07:41:10;98210.66;;;8.30;100.00
52927;BME280;40783;49.710;8.842;2023-04-15T07:43:35;98217.84;;;8.54;100.00
52927;BME280;40783;49.710;8.842;2023-04-15T07:46:05;98213.31;;;8.55;100.00
52927;BME280;40783;49.710;8.842;2023-04-15T07:48:31;98224.31;;;8.43;100.00
52927;BME280;40783;49.710;8.842;2023-04-15T07:50:56;98217.31;;;8.34;100.00
52927;BME280;40783;49.710;8.842;2023-04-15T07:53:26;98221.13;;;8.31;100.00
52927;BME280;40783;49.710;8.842;2023-04-15T07:55:52;98222.66;;;8.34;100.00
52927;BME280;40783;49.710;8.842;2023-04-15T07:58:17;98214.84;;;8.49;99.88
52927;BME280;40783;49.710;8.842;2023-04-15T08:00:45;98221.00;;;8.41;98.82
52927;BME280;40783;49.710;8.842;2023-04-15T08:03:10;98218.66;;;8.55;99.70
52927;BME280;40783;49.710;8.842;2023-04-15T08:05:36;98210.34;;;8.50;99.44
52927;BME280;40783;49.710;8.842;2023-04-15T08:08:03;98222.16;;;8.55;99.65
52927;BME280;40783;49.710;8.842;2023-04-15T08:10:31;98218.63;;;8.88;98.96
52927;BME280;40783;49.710;8.842;2023-04-15T08:12:59;98223.53;;;9.08;97.93
52927;BME280;40783;49.710;8.842;2023-04-15T08:15:25;98222.38;;;9.10;96.08
52927;BME280;40783;49.710;8.842;2023-04-15T08:17:50;98224.50;;;9.23;92.36
52927;BME280;40783;49.710;8.842;2023-04-15T08:20:16;98218.09;;;9.41;93.55
52927;BME280;40783;49.710;8.842;2023-04-15T08:22:46;98220.72;;;9.49;91.81
52927;BME280;40783;49.710;8.842;2023-04-15T08:25:18;98222.44;;;9.42;89.71
52927;BME280;40783;49.710;8.842;2023-04-15T08:27:46;98223.41;;;9.49;89.84
52927;BME280;40783;49.710;8.842;2023-04-15T08:30:12;98220.19;;;9.54;88.90
52927;BME280;40783;49.710;8.842;2023-04-15T08:32:38;98229.81;;;9.31;91.44
52927;BME280;40783;49.710;8.842;2023-04-15T08:35:03;98229.13;;;9.38;92.02
52927;BME280;40783;49.710;8.842;2023-04-15T08:37:29;98224.06;;;9.51;91.65
52927;BME280;40783;49.710;8.842;2023-04-15T08:39:54;98227.66;;;9.58;89.46
52927;BME280;40783;49.710;8.842;2023-04-15T08:42:27;98229.09;;;9.77;89.82
52927;BME280;40783;49.710;8.842;2023-04-15T08:44:57;98230.00;;;9.61;91.39
52927;BME280;40783;49.710;8.842;2023-04-15T08:47:25;98230.78;;;10.02;92.13
52927;BME280;40783;49.710;8.842;2023-04-15T08:49:56;98236.47;;;9.99;88.21
52927;BME280;40783;49.710;8.842;2023-04-15T08:52:25;98229.22;;;10.07;86.96
52927;BME280;40783;49.710;8.842;2023-04-15T08:54:52;98232.59;;;10.01;84.93
52927;BME280;40783;49.710;8.842;2023-04-15T08:57:27;98235.59;;;9.75;87.50
52927;BME280;40783;49.710;8.842;2023-04-15T08:59:54;98238.56;;;9.80;88.11
52927;BME280;40783;49.710;8.842;2023-04-15T09:02:20;98234.75;;;10.06;86.83
52927;BME280;40783;49.710;8.842;2023-04-15T09:04:49;98239.06;;;10.07;85.80
52927;BME280;40783;49.710;8.842;2023-04-15T09:07:15;98245.34;;;10.14;84.74
52927;BME280;40783;49.710;8.842;2023-04-15T09:09:40;98230.03;;;10.08;81.67
52927;BME280;40783;49.710;8.842;2023-04-15T09:12:07;98238.22;;;9.83;83.69
52927;BME280;40783;49.710;8.842;2023-04-15T09:14:32;98239.81;;;10.01;82.48
52927;BME280;40783;49.710;8.842;2023-04-15T09:17:00;98249.16;;;9.97;79.26
52927;BME280;40783;49.710;8.842;2023-04-15T09:19:26;98237.19;;;9.92;78.69
52927;BME280;40783;49.710;8.842;2023-04-15T09:21:56;98246.06;;;10.08;81.18
52927;BME280;40783;49.710;8.842;2023-04-15T09:24:23;98254.47;;;10.28;83.74
52927;BME280;40783;49.710;8.842;2023-04-15T09:26:51;98253.91;;;10.33;78.43
52927;BME280;40783;49.710;8.842;2023-04-15T09:29:18;98262.22;;;10.38;79.56
52927;BME280;40783;49.710;8.842;2023-04-15T09:31:46;98255.59;;;10.34;78.41
52927;BME280;40783;49.710;8.842;2023-04-15T09:34:11;98261.75;;;10.34;80.22
52927;BME280;40783;49.710;8.842;2023-04-15T09:39:13;98273.91;;;10.45;81.46
52927;BME280;40783;49.710;8.842;2023-04-15T09:41:41;98273.88;;;10.22;80.29
52927;BME280;40783;49.710;8.842;2023-04-15T09:44:21;98269.72;;;10.43;82.06
52927;BME280;40783;49.710;8.842;2023-04-15T09:46:46;98274.69;;;10.22;80.70
52927;BME280;40783;49.710;8.842;2023-04-15T09:49:12;98272.84;;;10.54;78.41
52927;BME280;40783;49.710;8.842;2023-04-15T09:51:43;98277.53;;;10.52;78.32
52927;BME280;40783;49.710;8.842;2023-04-15T09:54:08;98275.56;;;10.46;79.02
52927;BME280;40783;49.710;8.842;2023-04-15T09:56:37;98278.97;;;10.40;78.08
52927;BME280;40783;49.710;8.842;2023-04-15T09:59:09;98283.28;;;10.41;78.18
52927;BME280;40783;49.710;8.842;2023-04-15T10:01:37;98285.31;;;10.39;79.00
52927;BME280;40783;49.710;8.842;2023-04-15T10:04:03;98281.75;;;10.15;80.34
52927;BME280;40783;49.710;8.842;2023-04-15T10:06:29;98281.94;;;10.45;80.25
52927;BME280;40783;49.710;8.842;2023-04-15T10:08:56;98295.94;;;10.47;79.71
52927;BME280;40783;49.710;8.842;2023-04-15T10:11:23;98289.44;;;10.65;78.40
52927;BME280;40783;49.710;8.842;2023-04-15T10:13:49;98298.19;;;10.59;79.59
52927;BME280;40783;49.710;8.842;2023-04-15T10:16:19;98288.81;;;10.39;78.04
52927;BME280;40783;49.710;8.842;2023-04-15T10:18:54;98296.09;;;10.46;77.78
52927;BME280;40783;49.710;8.842;2023-04-15T10:21:19;98296.16;;;10.61;79.46
52927;BME280;40783;49.710;8.842;2023-04-15T10:23:49;98295.78;;;10.64;76.50
52927;BME280;40783;49.710;8.842;2023-04-15T10:26:15;98299.22;;;10.58;76.61
52927;BME280;40783;49.710;8.842;2023-04-15T10:28:46;98304.41;;;10.74;76.14
52927;BME280;40783;49.710;8.842;2023-04-15T10:31:12;98306.50;;;10.64;74.86
52927;BME280;40783;49.710;8.842;2023-04-15T10:33:39;98313.75;;;10.55;74.87
52927;BME280;40783;49.710;8.842;2023-04-15T10:36:06;98314.09;;;10.52;72.33
52927;BME280;40783;49.710;8.842;2023-04-15T10:41:20;98321.66;;;10.48;73.69
52927;BME280;40783;49.710;8.842;2023-04-15T10:43:59;98325.56;;;10.61;74.64
52927;BME280;40783;49.710;8.842;2023-04-15T10:49:15;98325.00;;;10.50;70.46
52927;BME280;40783;49.710;8.842;2023-04-15T10:51:43;98314.34;;;10.65;71.55
52927;BME280;40783;49.710;8.842;2023-04-15T10:56:43;98315.06;;;10.97;70.24
52927;BME280;40783;49.710;8.842;2023-04-15T10:59:11;98317.00;;;10.89;70.93
52927;BME280;40783;49.710;8.842;2023-04-15T11:01:59;98320.53;;;11.04;70.56
52927;BME280;40783;49.710;8.842;2023-04-15T11:04:56;98325.09;;;10.80;70.43
52927;BME280;40783;49.710;8.842;2023-04-15T11:07:36;98338.75;;;10.86;71.52
52927;BME280;40783;49.710;8.842;2023-04-15T11:10:03;98331.25;;;11.04;71.80
52927;BME280;40783;49.710;8.842;2023-04-15T11:12:55;98325.97;;;11.11;70.47
52927;BME280;40783;49.710;8.842;2023-04-15T11:15:38;98317.22;;;11.32;70.06
52927;BME280;40783;49.710;8.842;2023-04-15T11:20:37;98318.91;;;11.33;70.28
52927;BME280;40783;49.710;8.842;2023-04-15T11:23:05;98325.16;;;11.10;70.21
52927;BME280;40783;49.710;8.842;2023-04-15T11:25:32;98326.38;;;11.53;68.19
52927;BME280;40783;49.710;8.842;2023-04-15T11:28:01;98335.06;;;11.70;69.71
52927;BME280;40783;49.710;8.842;2023-04-15T11:30:32;98331.47;;;11.63;68.21
52927;BME280;40783;49.710;8.842;2023-04-15T11:33:02;98324.41;;;11.77;67.18
52927;BME280;40783;49.710;8.842;2023-04-15T11:35:31;98323.00;;;11.96;67.00
52927;BME280;40783;49.710;8.842;2023-04-15T11:38:08;98326.69;;;11.95;67.69
52927;BME280;40783;49.710;8.842;2023-04-15T11:40:34;98326.81;;;11.71;69.49
52927;BME280;40783;49.710;8.842;2023-04-15T11:43:09;98352.16;;;11.54;69.15
52927;BME280;40783;49.710;8.842;2023-04-15T11:45:36;98342.34;;;11.31;69.03
52927;BME280;40783;49.710;8.842;2023-04-15T11:48:10;98342.53;;;11.60;69.48
52927;BME280;40783;49.710;8.842;2023-04-15T11:50:38;98351.09;;;11.25;70.59
52927;BME280;40783;49.710;8.842;2023-04-15T11:53:06;98353.03;;;11.31;70.88
52927;BME280;40783;49.710;8.842;2023-04-15T11:55:46;98350.28;;;11.39;70.15
52927;BME280;40783;49.710;8.842;2023-04-15T12:00:41;98351.50;;;11.37;68.99
52927;BME280;40783;49.710;8.842;2023-04-15T12:06:09;98357.06;;;10.97;73.77
52927;BME280;40783;49.710;8.842;2023-04-15T12:14:08;98355.19;;;11.36;72.48
52927;BME280;40783;49.710;8.842;2023-04-15T12:16:36;98352.88;;;11.48;67.95
52927;BME280;40783;49.710;8.842;2023-04-15T12:19:06;98349.19;;;11.49;68.86
52927;BME280;40783;49.710;8.842;2023-04-15T12:21:37;98355.63;;;11.69;67.95
52927;BME280;40783;49.710;8.842;2023-04-15T12:24:05;98356.19;;;11.80;67.61
52927;BME280;40783;49.710;8.842;2023-04-15T12:26:52;98365.16;;;11.72;70.12
52927;BME280;40783;49.710;8.842;2023-04-15T12:29:18;98361.75;;;11.63;70.73
52927;BME280;40783;49.710;8.842;2023-04-15T12:31:50;98372.34;;;11.26;72.30
52927;BME280;40783;49.710;8.842;2023-04-15T12:34:28;98374.34;;;11.09;74.20
52927;BME280;40783;49.710;8.842;2023-04-15T12:36:59;98385.56;;;11.05;73.89
52927;BME280;40783;49.710;8.842;2023-04-15T12:39:30;98384.41;;;10.84;75.88
52927;BME280;40783;49.710;8.842;2023-04-15T12:42:00;98392.53;;;10.91;77.04
52927;BME280;40783;49.710;8.842;2023-04-15T12:44:27;98411.03;;;10.77;81.25
52927;BME280;40783;49.710;8.842;2023-04-15T12:46:55;98415.84;;;10.59;85.19
52927;BME280;40783;49.710;8.842;2023-04-15T12:49:21;98424.94;;;10.33;90.21
52927;BME280;40783;49.710;8.842;2023-04-15T12:51:53;98424.97;;;9.85;97.38
52927;BME280;40783;49.710;8.842;2023-04-15T12:54:23;98431.53;;;9.57;100.00
52927;BME280;40783;49.710;8.842;2023-04-15T12:56:54;98436.91;;;9.41;100.00
52927;BME280;40783;49.710;8.842;2023-04-15T12:59:22;98438.25;;;9.45;100.00
52927;BME280;40783;49.710;8.842;2023-04-15T13:01:48;98445.25;;;9.46;100.00
52927;BME280;40783;49.710;8.842;2023-04-15T13:04:18;98446.56;;;9.58;100.00
52927;BME280;40783;49.710;8.842;2023-04-15T13:06:45;98448.94;;;9.45;100.00
52927;BME280;40783;49.710;8.842;2023-04-15T13:09:13;98456.28;;;9.34;100.00
52927;BME280;40783;49.710;8.842;2023-04-15T13:11:38;98464.94;;;9.20;100.00
52927;BME280;40783;49.710;8.842;2023-04-15T13:14:05;98465.94;;;9.27;100.00
52927;BME280;40783;49.710;8.842;2023-04-15T13:16:32;98468.25;;;8.97;100.00
52927;BME280;40783;49.710;8.842;2023-04-15T13:19:01;98476.25;;;9.05;100.00
52927;BME280;40783;49.710;8.842;2023-04-15T13:21:27;98464.59;;;9.23;100.00
52927;BME280;40783;49.710;8.842;2023-04-15T13:23:54;98473.28;;;9.25;100.00
52927;BME280;40783;49.710;8.842;2023-04-15T13:26:19;98482.28;;;9.24;100.00